sensor_id;sensor_type;location;lat;lon;timestamp;P1;durP1;ratioP1;P2;durP2;ratioP2
69569;SDS011;56781;42.292;23.146;2024-01-07T00:02:07;28.02;;;12.38;;
69569;SDS011;56781;42.292;23.146;2024-01-07T00:04:38;24.88;;;10.80;;
69569;SDS011;56781;42.292;23.146;2024-01-07T00:07:08;24.33;;;10.75;;
69569;SDS011;56781;42.292;23.146;2024-01-07T00:09:37;43.40;;;16.23;;
69569;SDS011;56781;42.292;23.146;2024-01-07T00:12:06;25.58;;;11.23;;
69569;SDS011;56781;42.292;23.146;2024-01-07T00:14:35;24.23;;;10.55;;
69569;SDS011;56781;42.292;23.146;2024-01-07T00:17:03;21.27;;;10.32;;
69569;SDS011;56781;42.292;23.146;2024-01-07T00:19:32;25.88;;;10.57;;
69569;SDS011;56781;42.292;23.146;2024-01-07T00:22:04;19.73;;;9.80;;
69569;SDS011;56781;42.292;23.146;2024-01-07T00:24:32;20.55;;;9.90;;
69569;SDS011;56781;42.292;23.146;2024-01-07T00:27:01;19.58;;;9.55;;
69569;SDS011;56781;42.292;23.146;2024-01-07T00:29:30;19.58;;;9.15;;
69569;SDS011;56781;42.292;23.146;2024-01-07T00:31:58;20.42;;;9.48;;
69569;SDS011;56781;42.292;23.146;2024-01-07T00:34:26;18.50;;;9.30;;
69569;SDS011;56781;42.292;23.146;2024-01-07T00:36:55;20.52;;;10.23;;
69569;SDS011;56781;42.292;23.146;2024-01-07T00:39:26;28.95;;;13.75;;
69569;SDS011;56781;42.292;23.146;2024-01-07T00:41:54;25.60;;;11.15;;
69569;SDS011;56781;42.292;23.146;2024-01-07T00:44:23;29.05;;;12.55;;
69569;SDS011;56781;42.292;23.146;2024-01-07T00:46:52;33.97;;;12.87;;
69569;SDS011;56781;42.292;23.146;2024-01-07T00:49:21;39.22;;;14.82;;
69569;SDS011;56781;42.292;23.146;2024-01-07T00:51:49;31.15;;;13.55;;
69569;SDS011;56781;42.292;23.146;2024-01-07T00:54:18;29.35;;;13.25;;
69569;SDS011;56781;42.292;23.146;2024-01-07T00:56:49;28.65;;;12.80;;
69569;SDS011;56781;42.292;23.146;2024-01-07T00:59:17;50.33;;;15.87;;
69569;SDS011;56781;42.292;23.146;2024-01-07T01:01:46;33.63;;;14.07;;
69569;SDS011;56781;42.292;23.146;2024-01-07T01:04:15;31.65;;;13.48;;
69569;SDS011;56781;42.292;23.146;2024-01-07T01:06:43;26.98;;;12.20;;
69569;SDS011;56781;42.292;23.146;2024-01-07T01:09:12;39.47;;;18.60;;
69569;SDS011;56781;42.292;23.146;2024-01-07T01:11:41;38.23;;;16.77;;
69569;SDS011;56781;42.292;23.146;2024-01-07T01:14:11;34.97;;;14.43;;
69569;SDS011;56781;42.292;23.146;2024-01-07T01:16:40;35.63;;;15.00;;
69569;SDS011;56781;42.292;23.146;2024-01-07T01:19:08;42.40;;;17.98;;
69569;SDS011;56781;42.292;23.146;2024-01-07T01:21:37;41.85;;;18.33;;
69569;SDS011;56781;42.292;23.146;2024-01-07T01:24:06;38.10;;;16.93;;
69569;SDS011;56781;42.292;23.146;2024-01-07T01:26:35;42.85;;;17.80;;
69569;SDS011;56781;42.292;23.146;2024-01-07T01:29:03;39.47;;;17.35;;
69569;SDS011;56781;42.292;23.146;2024-01-07T01:31:33;47.50;;;17.35;;
69569;SDS011;56781;42.292;23.146;2024-01-07T01:34:02;89.93;;;23.83;;
69569;SDS011;56781;42.292;23.146;2024-01-07T01:36:31;51.97;;;16.97;;
69569;SDS011;56781;42.292;23.146;2024-01-07T01:39:00;36.45;;;15.30;;
69569;SDS011;56781;42.292;23.146;2024-01-07T01:41:28;28.70;;;13.15;;
69569;SDS011;56781;42.292;23.146;2024-01-07T01:43:57;28.67;;;12.77;;
69569;SDS011;56781;42.292;23.146;2024-01-07T01:46:26;28.95;;;13.60;;
69569;SDS011;56781;42.292;23.146;2024-01-07T01:48:59;29.47;;;13.03;;
69569;SDS011;56781;42.292;23.146;2024-01-07T01:51:29;33.45;;;13.07;;
69569;SDS011;56781;42.292;23.146;2024-01-07T01:53:59;35.25;;;12.40;;
69569;SDS011;56781;42.292;23.146;2024-01-07T01:56:28;32.42;;;13.15;;
69569;SDS011;56781;42.292;23.146;2024-01-07T01:58:57;31.50;;;13.40;;
69569;SDS011;56781;42.292;23.146;2024-01-07T02:01:26;30.53;;;12.87;;
69569;SDS011;56781;42.292;23.146;2024-01-07T02:03:56;28.17;;;12.15;;
69569;SDS011;56781;42.292;23.146;2024-01-07T02:06:26;27.35;;;11.65;;
69569;SDS011;56781;42.292;23.146;2024-01-07T02:08:55;27.13;;;11.13;;
69569;SDS011;56781;42.292;23.146;2024-01-07T02:11:24;34.17;;;14.07;;
69569;SDS011;56781;42.292;23.146;2024-01-07T02:13:53;38.23;;;15.17;;
69569;SDS011;56781;42.292;23.146;2024-01-07T02:16:21;29.40;;;13.10;;
69569;SDS011;56781;42.292;23.146;2024-01-07T02:18:51;25.60;;;11.15;;
69569;SDS011;56781;42.292;23.146;2024-01-07T02:21:19;19.83;;;10.05;;
69569;SDS011;56781;42.292;23.146;2024-01-07T02:23:50;23.52;;;10.60;;
69569;SDS011;56781;42.292;23.146;2024-01-07T02:26:20;25.30;;;11.70;;
69569;SDS011;56781;42.292;23.146;2024-01-07T02:28:49;29.38;;;12.82;;
69569;SDS011;56781;42.292;23.146;2024-01-07T02:31:18;25.02;;;12.18;;
69569;SDS011;56781;42.292;23.146;2024-01-07T02:33:46;27.88;;;11.75;;
69569;SDS011;56781;42.292;23.146;2024-01-07T02:36:16;23.55;;;10.63;;
69569;SDS011;56781;42.292;23.146;2024-01-07T02:38:44;22.67;;;11.00;;
69569;SDS011;56781;42.292;23.146;2024-01-07T02:41:13;23.75;;;10.38;;
69569;SDS011;56781;42.292;23.146;2024-01-07T02:43:43;22.60;;;10.55;;
69569;SDS011;56781;42.292;23.146;2024-01-07T02:46:13;25.05;;;12.00;;
69569;SDS011;56781;42.292;23.146;2024-01-07T02:48:42;21.23;;;10.57;;
69569;SDS011;56781;42.292;23.146;2024-01-07T02:51:11;23.30;;;10.77;;
69569;SDS011;56781;42.292;23.146;2024-01-07T02:53:39;20.42;;;9.95;;
69569;SDS011;56781;42.292;23.146;2024-01-07T02:56:08;21.70;;;9.60;;
69569;SDS011;56781;42.292;23.146;2024-01-07T02:58:37;19.00;;;9.75;;
69569;SDS011;56781;42.292;23.146;2024-01-07T03:01:09;21.58;;;9.40;;
69569;SDS011;56781;42.292;23.146;2024-01-07T03:03:38;18.50;;;9.20;;
69569;SDS011;56781;42.292;23.146;2024-01-07T03:06:07;18.40;;;9.52;;
69569;SDS011;56781;42.292;23.146;2024-01-07T03:08:36;23.25;;;10.15;;
69569;SDS011;56781;42.292;23.146;2024-01-07T03:11:05;21.38;;;9.77;;
69569;SDS011;56781;42.292;23.146;2024-01-07T03:13:34;19.30;;;9.18;;
69569;SDS011;56781;42.292;23.146;2024-01-07T03:16:03;9.43;;;4.40;;
69569;SDS011;56781;42.292;23.146;2024-01-07T03:18:34;11.32;;;5.45;;
69569;SDS011;56781;42.292;23.146;2024-01-07T03:21:03;14.85;;;6.50;;
69569;SDS011;56781;42.292;23.146;2024-01-07T03:23:32;24.23;;;10.90;;
69569;SDS011;56781;42.292;23.146;2024-01-07T03:26:00;17.73;;;7.85;;
69569;SDS011;56781;42.292;23.146;2024-01-07T03:28:29;31.40;;;13.93;;
69569;SDS011;56781;42.292;23.146;2024-01-07T03:30:58;20.08;;;8.75;;
69569;SDS011;56781;42.292;23.146;2024-01-07T03:33:26;16.88;;;7.50;;
69569;SDS011;56781;42.292;23.146;2024-01-07T03:35:59;23.52;;;9.65;;
69569;SDS011;56781;42.292;23.146;2024-01-07T03:38:28;63.03;;;21.77;;
69569;SDS011;56781;42.292;23.146;2024-01-07T03:40:57;59.77;;;26.13;;
69569;SDS011;56781;42.292;23.146;2024-01-07T03:43:26;38.65;;;17.92;;
69569;SDS011;56781;42.292;23.146;2024-01-07T03:45:55;37.47;;;17.80;;
69569;SDS011;56781;42.292;23.146;2024-01-07T03:48:24;30.83;;;13.45;;
69569;SDS011;56781;42.292;23.146;2024-01-07T03:50:53;46.33;;;19.88;;
69569;SDS011;56781;42.292;23.146;2024-01-07T03:53:23;25.53;;;12.10;;
69569;SDS011;56781;42.292;23.146;2024-01-07T03:55:51;15.73;;;8.20;;
69569;SDS011;56781;42.292;23.146;2024-01-07T03:58:20;18.08;;;9.30;;
69569;SDS011;56781;42.292;23.146;2024-01-07T04:00:49;22.85;;;14.43;;
69569;SDS011;56781;42.292;23.146;2024-01-07T04:03:17;16.88;;;11.48;;
69569;SDS011;56781;42.292;23.146;2024-01-07T04:05:46;14.80;;;10.50;;
69569;SDS011;56781;42.292;23.146;2024-01-07T04:08:15;12.13;;;7.70;;
69569;SDS011;56781;42.292;23.146;2024-01-07T04:10:44;12.02;;;5.70;;
69569;SDS011;56781;42.292;23.146;2024-01-07T04:13:13;13.55;;;6.20;;
69569;SDS011;56781;42.292;23.146;2024-01-07T04:15:42;11.50;;;6.18;;
69569;SDS011;56781;42.292;23.146;2024-01-07T04:18:10;11.33;;;5.80;;
69569;SDS011;56781;42.292;23.146;2024-01-07T04:20:39;17.15;;;7.68;;
69569;SDS011;56781;42.292;23.146;2024-01-07T04:23:08;13.30;;;6.22;;
69569;SDS011;56781;42.292;23.146;2024-01-07T04:25:36;14.05;;;6.80;;
69569;SDS011;56781;42.292;23.146;2024-01-07T04:28:08;13.30;;;7.60;;
69569;SDS011;56781;42.292;23.146;2024-01-07T04:30:36;19.27;;;8.70;;
69569;SDS011;56781;42.292;23.146;2024-01-07T04:33:05;18.95;;;9.07;;
69569;SDS011;56781;42.292;23.146;2024-01-07T04:35:34;19.90;;;8.88;;
69569;SDS011;56781;42.292;23.146;2024-01-07T04:38:03;18.08;;;8.80;;
69569;SDS011;56781;42.292;23.146;2024-01-07T04:40:32;20.38;;;9.45;;
69569;SDS011;56781;42.292;23.146;2024-01-07T04:43:00;22.40;;;10.60;;
69569;SDS011;56781;42.292;23.146;2024-01-07T04:45:31;15.55;;;7.10;;
69569;SDS011;56781;42.292;23.146;2024-01-07T04:48:00;12.57;;;6.18;;
69569;SDS011;56781;42.292;23.146;2024-01-07T04:50:28;12.25;;;5.68;;
69569;SDS011;56781;42.292;23.146;2024-01-07T04:52:57;12.48;;;5.90;;
69569;SDS011;56781;42.292;23.146;2024-01-07T04:55:26;16.63;;;6.87;;
69569;SDS011;56781;42.292;23.146;2024-01-07T04:57:55;29.02;;;13.88;;
69569;SDS011;56781;42.292;23.146;2024-01-07T05:00:24;54.67;;;22.13;;
69569;SDS011;56781;42.292;23.146;2024-01-07T05:02:54;13.52;;;5.93;;
69569;SDS011;56781;42.292;23.146;2024-01-07T05:05:22;10.55;;;5.53;;
69569;SDS011;56781;42.292;23.146;2024-01-07T05:07:51;12.10;;;5.67;;
69569;SDS011;56781;42.292;23.146;2024-01-07T05:10:20;11.60;;;4.75;;
69569;SDS011;56781;42.292;23.146;2024-01-07T05:12:48;10.15;;;5.38;;
69569;SDS011;56781;42.292;23.146;2024-01-07T05:15:17;12.15;;;5.60;;
69569;SDS011;56781;42.292;23.146;2024-01-07T05:17:46;15.73;;;6.53;;
69569;SDS011;56781;42.292;23.146;2024-01-07T05:20:16;21.97;;;9.60;;
69569;SDS011;56781;42.292;23.146;2024-01-07T05:22:45;15.32;;;6.80;;
69569;SDS011;56781;42.292;23.146;2024-01-07T05:25:13;15.25;;;6.45;;
69569;SDS011;56781;42.292;23.146;2024-01-07T05:27:42;9.93;;;4.57;;
69569;SDS011;56781;42.292;23.146;2024-01-07T05:30:11;8.20;;;3.40;;
69569;SDS011;56781;42.292;23.146;2024-01-07T05:32:40;6.57;;;2.73;;
69569;SDS011;56781;42.292;23.146;2024-01-07T05:35:08;14.02;;;7.45;;
69569;SDS011;56781;42.292;23.146;2024-01-07T05:37:38;23.27;;;11.98;;
69569;SDS011;56781;42.292;23.146;2024-01-07T05:40:08;17.90;;;8.60;;
69569;SDS011;56781;42.292;23.146;2024-01-07T05:42:37;9.93;;;4.38;;
69569;SDS011;56781;42.292;23.146;2024-01-07T05:45:06;15.83;;;7.97;;
69569;SDS011;56781;42.292;23.146;2024-01-07T05:47:35;11.45;;;5.50;;
69569;SDS011;56781;42.292;23.146;2024-01-07T05:50:04;11.07;;;4.60;;
69569;SDS011;56781;42.292;23.146;2024-01-07T05:52:33;15.40;;;6.90;;
69569;SDS011;56781;42.292;23.146;2024-01-07T05:55:03;11.15;;;5.63;;
69569;SDS011;56781;42.292;23.146;2024-01-07T05:57:33;16.13;;;7.97;;
69569;SDS011;56781;42.292;23.146;2024-01-07T06:00:02;19.75;;;8.68;;
69569;SDS011;56781;42.292;23.146;2024-01-07T06:02:34;14.85;;;8.27;;
69569;SDS011;56781;42.292;23.146;2024-01-07T06:05:03;14.68;;;8.13;;
69569;SDS011;56781;42.292;23.146;2024-01-07T06:07:32;18.48;;;9.18;;
69569;SDS011;56781;42.292;23.146;2024-01-07T06:10:01;20.17;;;10.23;;
69569;SDS011;56781;42.292;23.146;2024-01-07T06:12:32;31.17;;;13.82;;
69569;SDS011;56781;42.292;23.146;2024-01-07T06:15:01;28.13;;;12.52;;
69569;SDS011;56781;42.292;23.146;2024-01-07T06:17:29;31.35;;;12.70;;
69569;SDS011;56781;42.292;23.146;2024-01-07T06:19:58;22.05;;;10.70;;
69569;SDS011;56781;42.292;23.146;2024-01-07T06:22:27;17.57;;;9.10;;
69569;SDS011;56781;42.292;23.146;2024-01-07T06:24:55;19.08;;;10.52;;
69569;SDS011;56781;42.292;23.146;2024-01-07T06:27:26;25.63;;;11.93;;
69569;SDS011;56781;42.292;23.146;2024-01-07T06:29:54;19.83;;;10.15;;
69569;SDS011;56781;42.292;23.146;2024-01-07T06:32:23;25.85;;;11.80;;
69569;SDS011;56781;42.292;23.146;2024-01-07T06:34:52;35.83;;;16.50;;
69569;SDS011;56781;42.292;23.146;2024-01-07T06:37:21;62.53;;;28.70;;
69569;SDS011;56781;42.292;23.146;2024-01-07T06:39:50;90.65;;;39.47;;
69569;SDS011;56781;42.292;23.146;2024-01-07T06:42:18;54.83;;;24.35;;
69569;SDS011;56781;42.292;23.146;2024-01-07T06:44:48;69.47;;;30.90;;
69569;SDS011;56781;42.292;23.146;2024-01-07T06:47:17;179.47;;;63.33;;
69569;SDS011;56781;42.292;23.146;2024-01-07T06:49:45;179.73;;;65.65;;
69569;SDS011;56781;42.292;23.146;2024-01-07T06:52:14;97.40;;;41.28;;
69569;SDS011;56781;42.292;23.146;2024-01-07T06:54:43;46.92;;;23.17;;
69569;SDS011;56781;42.292;23.146;2024-01-07T06:57:11;44.42;;;21.48;;
69569;SDS011;56781;42.292;23.146;2024-01-07T06:59:40;53.67;;;26.83;;
69569;SDS011;56781;42.292;23.146;2024-01-07T07:02:10;47.80;;;24.95;;
69569;SDS011;56781;42.292;23.146;2024-01-07T07:04:38;44.72;;;21.73;;
69569;SDS011;56781;42.292;23.146;2024-01-07T07:07:07;38.75;;;18.88;;
69569;SDS011;56781;42.292;23.146;2024-01-07T07:09:36;49.22;;;25.08;;
69569;SDS011;56781;42.292;23.146;2024-01-07T07:12:05;65.80;;;32.53;;
69569;SDS011;56781;42.292;23.146;2024-01-07T07:14:34;71.53;;;40.70;;
69569;SDS011;56781;42.292;23.146;2024-01-07T07:17:03;77.80;;;36.40;;
69569;SDS011;56781;42.292;23.146;2024-01-07T07:19:33;68.40;;;29.60;;
69569;SDS011;56781;42.292;23.146;2024-01-07T07:22:03;83.18;;;35.08;;
69569;SDS011;56781;42.292;23.146;2024-01-07T07:24:32;39.13;;;20.40;;
69569;SDS011;56781;42.292;23.146;2024-01-07T07:27:01;32.03;;;16.58;;
69569;SDS011;56781;42.292;23.146;2024-01-07T07:29:30;22.67;;;13.38;;
69569;SDS011;56781;42.292;23.146;2024-01-07T07:31:58;36.72;;;23.33;;
69569;SDS011;56781;42.292;23.146;2024-01-07T07:34:27;31.00;;;18.63;;
69569;SDS011;56781;42.292;23.146;2024-01-07T07:36:57;28.63;;;16.63;;
69569;SDS011;56781;42.292;23.146;2024-01-07T07:39:26;32.58;;;15.05;;
69569;SDS011;56781;42.292;23.146;2024-01-07T07:41:55;17.63;;;8.00;;
69569;SDS011;56781;42.292;23.146;2024-01-07T07:44:23;8.30;;;3.20;;
69569;SDS011;56781;42.292;23.146;2024-01-07T07:46:52;18.65;;;9.27;;
69569;SDS011;56781;42.292;23.146;2024-01-07T07:49:21;11.33;;;5.17;;
69569;SDS011;56781;42.292;23.146;2024-01-07T07:51:53;10.07;;;4.80;;
69569;SDS011;56781;42.292;23.146;2024-01-07T07:54:24;15.85;;;7.40;;
69569;SDS011;56781;42.292;23.146;2024-01-07T07:56:53;14.40;;;6.18;;
69569;SDS011;56781;42.292;23.146;2024-01-07T07:59:21;17.55;;;7.93;;
69569;SDS011;56781;42.292;23.146;2024-01-07T08:01:50;9.53;;;4.73;;
69569;SDS011;56781;42.292;23.146;2024-01-07T08:04:19;12.07;;;5.70;;
69569;SDS011;56781;42.292;23.146;2024-01-07T08:06:48;13.95;;;6.50;;
69569;SDS011;56781;42.292;23.146;2024-01-07T08:09:16;13.07;;;5.30;;
69569;SDS011;56781;42.292;23.146;2024-01-07T08:11:46;14.35;;;7.07;;
69569;SDS011;56781;42.292;23.146;2024-01-07T08:14:15;11.47;;;6.20;;
69569;SDS011;56781;42.292;23.146;2024-01-07T08:16:43;7.95;;;4.60;;
69569;SDS011;56781;42.292;23.146;2024-01-07T08:19:12;9.85;;;4.97;;
69569;SDS011;56781;42.292;23.146;2024-01-07T08:21:41;12.85;;;6.53;;
69569;SDS011;56781;42.292;23.146;2024-01-07T08:24:09;10.30;;;4.70;;
69569;SDS011;56781;42.292;23.146;2024-01-07T08:26:38;8.77;;;4.47;;
69569;SDS011;56781;42.292;23.146;2024-01-07T08:29:08;29.98;;;20.20;;
69569;SDS011;56781;42.292;23.146;2024-01-07T08:31:37;11.93;;;6.38;;
69569;SDS011;56781;42.292;23.146;2024-01-07T08:34:05;13.82;;;6.72;;
69569;SDS011;56781;42.292;23.146;2024-01-07T08:36:33;12.20;;;6.50;;
69569;SDS011;56781;42.292;23.146;2024-01-07T08:39:02;5.50;;;2.70;;
69569;SDS011;56781;42.292;23.146;2024-01-07T08:41:30;5.30;;;2.70;;
69569;SDS011;56781;42.292;23.146;2024-01-07T08:43:59;7.25;;;3.88;;
69569;SDS011;56781;42.292;23.146;2024-01-07T08:46:29;7.10;;;3.55;;
69569;SDS011;56781;42.292;23.146;2024-01-07T08:48:58;8.82;;;4.22;;
69569;SDS011;56781;42.292;23.146;2024-01-07T08:51:26;5.67;;;2.97;;
69569;SDS011;56781;42.292;23.146;2024-01-07T08:56:25;6.45;;;3.00;;
69569;SDS011;56781;42.292;23.146;2024-01-07T08:58:53;7.28;;;2.70;;
69569;SDS011;56781;42.292;23.146;2024-01-07T09:01:21;9.50;;;3.60;;
69569;SDS011;56781;42.292;23.146;2024-01-07T09:03:53;8.93;;;2.20;;
69569;SDS011;56781;42.292;23.146;2024-01-07T09:06:22;6.03;;;2.33;;
69569;SDS011;56781;42.292;23.146;2024-01-07T09:08:50;4.72;;;1.73;;
69569;SDS011;56781;42.292;23.146;2024-01-07T09:11:19;7.07;;;1.90;;
69569;SDS011;56781;42.292;23.146;2024-01-07T09:13:47;4.88;;;1.40;;
69569;SDS011;56781;42.292;23.146;2024-01-07T09:16:16;6.50;;;1.87;;
69569;SDS011;56781;42.292;23.146;2024-01-07T09:18:45;5.28;;;1.60;;
69569;SDS011;56781;42.292;23.146;2024-01-07T09:21:16;5.03;;;1.85;;
69569;SDS011;56781;42.292;23.146;2024-01-07T09:23:45;6.57;;;2.20;;
69569;SDS011;56781;42.292;23.146;2024-01-07T09:26:13;3.67;;;1.55;;
69569;SDS011;56781;42.292;23.146;2024-01-07T09:28:42;3.90;;;1.10;;
69569;SDS011;56781;42.292;23.146;2024-01-07T09:31:11;3.88;;;1.20;;
69569;SDS011;56781;42.292;23.146;2024-01-07T09:33:40;6.20;;;1.48;;
69569;SDS011;56781;42.292;23.146;2024-01-07T09:36:09;5.95;;;1.92;;
69569;SDS011;56781;42.292;23.146;2024-01-07T09:38:56;8.35;;;2.72;;
69569;SDS011;56781;42.292;23.146;2024-01-07T09:41:24;6.17;;;2.53;;
69569;SDS011;56781;42.292;23.146;2024-01-07T09:43:53;9.00;;;2.83;;
69569;SDS011;56781;42.292;23.146;2024-01-07T09:46:24;5.50;;;2.80;;
69569;SDS011;56781;42.292;23.146;2024-01-07T09:48:54;8.60;;;3.35;;
69569;SDS011;56781;42.292;23.146;2024-01-07T09:51:22;5.88;;;2.35;;
69569;SDS011;56781;42.292;23.146;2024-01-07T09:53:52;4.53;;;2.03;;
69569;SDS011;56781;42.292;23.146;2024-01-07T09:56:33;6.72;;;1.17;;
69569;SDS011;56781;42.292;23.146;2024-01-07T09:59:08;9.10;;;2.97;;
69569;SDS011;56781;42.292;23.146;2024-01-07T10:01:37;7.78;;;2.00;;
69569;SDS011;56781;42.292;23.146;2024-01-07T10:04:06;7.32;;;2.15;;
69569;SDS011;56781;42.292;23.146;2024-01-07T10:06:35;7.33;;;2.00;;
69569;SDS011;56781;42.292;23.146;2024-01-07T10:09:07;6.05;;;1.60;;
69569;SDS011;56781;42.292;23.146;2024-01-07T10:11:35;3.92;;;1.27;;
69569;SDS011;56781;42.292;23.146;2024-01-07T10:14:04;3.92;;;1.10;;
69569;SDS011;56781;42.292;23.146;2024-01-07T10:16:33;9.02;;;2.42;;
69569;SDS011;56781;42.292;23.146;2024-01-07T10:19:02;6.70;;;3.27;;
69569;SDS011;56781;42.292;23.146;2024-01-07T10:21:31;6.97;;;2.20;;
69569;SDS011;56781;42.292;23.146;2024-01-07T10:24:08;7.60;;;2.53;;
69569;SDS011;56781;42.292;23.146;2024-01-07T10:26:39;6.80;;;1.67;;
69569;SDS011;56781;42.292;23.146;2024-01-07T10:29:08;5.18;;;1.70;;
69569;SDS011;56781;42.292;23.146;2024-01-07T10:31:38;5.20;;;1.30;;
69569;SDS011;56781;42.292;23.146;2024-01-07T10:34:07;4.20;;;1.30;;
69569;SDS011;56781;42.292;23.146;2024-01-07T10:36:37;6.55;;;2.40;;
69569;SDS011;56781;42.292;23.146;2024-01-07T10:39:08;4.07;;;1.30;;
69569;SDS011;56781;42.292;23.146;2024-01-07T10:41:37;5.70;;;1.90;;
69569;SDS011;56781;42.292;23.146;2024-01-07T10:44:07;6.10;;;1.80;;
69569;SDS011;56781;42.292;23.146;2024-01-07T10:46:35;4.15;;;1.25;;
69569;SDS011;56781;42.292;23.146;2024-01-07T10:49:07;5.75;;;1.48;;
69569;SDS011;56781;42.292;23.146;2024-01-07T10:51:49;4.95;;;1.55;;
69569;SDS011;56781;42.292;23.146;2024-01-07T10:54:28;5.20;;;2.05;;
69569;SDS011;56781;42.292;23.146;2024-01-07T10:56:58;5.97;;;1.90;;
69569;SDS011;56781;42.292;23.146;2024-01-07T10:59:29;6.88;;;3.03;;
69569;SDS011;56781;42.292;23.146;2024-01-07T11:01:59;4.60;;;1.77;;
69569;SDS011;56781;42.292;23.146;2024-01-07T11:04:32;9.25;;;3.80;;
69569;SDS011;56781;42.292;23.146;2024-01-07T11:07:12;8.68;;;2.05;;
69569;SDS011;56781;42.292;23.146;2024-01-07T11:09:53;13.57;;;5.60;;
69569;SDS011;56781;42.292;23.146;2024-01-07T11:12:31;11.70;;;3.53;;
69569;SDS011;56781;42.292;23.146;2024-01-07T11:15:01;7.57;;;2.63;;
69569;SDS011;56781;42.292;23.146;2024-01-07T11:17:40;5.05;;;1.80;;
69569;SDS011;56781;42.292;23.146;2024-01-07T11:20:13;12.48;;;4.57;;
69569;SDS011;56781;42.292;23.146;2024-01-07T11:22:47;10.97;;;3.37;;
69569;SDS011;56781;42.292;23.146;2024-01-07T11:28:07;6.15;;;2.55;;
69569;SDS011;56781;42.292;23.146;2024-01-07T11:30:38;46.25;;;18.25;;
69569;SDS011;56781;42.292;23.146;2024-01-07T11:33:08;9.82;;;4.00;;
69569;SDS011;56781;42.292;23.146;2024-01-07T11:35:55;9.40;;;4.20;;
69569;SDS011;56781;42.292;23.146;2024-01-07T11:38:24;6.43;;;2.53;;
69569;SDS011;56781;42.292;23.146;2024-01-07T11:40:55;6.25;;;2.20;;
69569;SDS011;56781;42.292;23.146;2024-01-07T11:43:26;6.38;;;2.72;;
69569;SDS011;56781;42.292;23.146;2024-01-07T11:45:55;6.30;;;2.30;;
69569;SDS011;56781;42.292;23.146;2024-01-07T11:48:24;8.30;;;2.60;;
69569;SDS011;56781;42.292;23.146;2024-01-07T11:50:53;7.47;;;3.47;;
69569;SDS011;56781;42.292;23.146;2024-01-07T11:53:22;13.35;;;6.20;;
69569;SDS011;56781;42.292;23.146;2024-01-07T11:55:51;8.35;;;3.33;;
69569;SDS011;56781;42.292;23.146;2024-01-07T11:58:21;8.07;;;3.97;;
69569;SDS011;56781;42.292;23.146;2024-01-07T12:00:49;9.30;;;4.23;;
69569;SDS011;56781;42.292;23.146;2024-01-07T12:03:18;12.10;;;6.05;;
69569;SDS011;56781;42.292;23.146;2024-01-07T12:05:47;18.50;;;10.70;;
69569;SDS011;56781;42.292;23.146;2024-01-07T12:08:16;22.70;;;11.20;;
69569;SDS011;56781;42.292;23.146;2024-01-07T12:10:44;11.80;;;6.07;;
69569;SDS011;56781;42.292;23.146;2024-01-07T12:13:13;16.20;;;6.07;;
69569;SDS011;56781;42.292;23.146;2024-01-07T12:15:43;10.90;;;4.55;;
69569;SDS011;56781;42.292;23.146;2024-01-07T12:18:13;19.73;;;8.55;;
69569;SDS011;56781;42.292;23.146;2024-01-07T12:20:54;22.38;;;10.40;;
69569;SDS011;56781;42.292;23.146;2024-01-07T12:23:23;18.30;;;8.85;;
69569;SDS011;56781;42.292;23.146;2024-01-07T12:25:51;14.43;;;7.00;;
69569;SDS011;56781;42.292;23.146;2024-01-07T12:28:20;8.52;;;2.75;;
69569;SDS011;56781;42.292;23.146;2024-01-07T12:30:50;7.38;;;1.73;;
69569;SDS011;56781;42.292;23.146;2024-01-07T12:33:19;4.43;;;1.33;;
69569;SDS011;56781;42.292;23.146;2024-01-07T12:35:48;12.13;;;4.28;;
69569;SDS011;56781;42.292;23.146;2024-01-07T12:38:16;5.47;;;1.50;;
69569;SDS011;56781;42.292;23.146;2024-01-07T12:40:51;4.10;;;1.30;;
69569;SDS011;56781;42.292;23.146;2024-01-07T12:43:20;34.80;;;13.13;;
69569;SDS011;56781;42.292;23.146;2024-01-07T12:45:51;10.95;;;4.18;;
69569;SDS011;56781;42.292;23.146;2024-01-07T12:48:21;3.75;;;1.40;;
69569;SDS011;56781;42.292;23.146;2024-01-07T12:50:50;4.53;;;1.30;;
69569;SDS011;56781;42.292;23.146;2024-01-07T12:53:19;5.28;;;1.50;;
69569;SDS011;56781;42.292;23.146;2024-01-07T12:55:47;3.92;;;1.40;;
69569;SDS011;56781;42.292;23.146;2024-01-07T12:58:17;5.90;;;1.55;;
69569;SDS011;56781;42.292;23.146;2024-01-07T13:00:45;9.32;;;4.28;;
69569;SDS011;56781;42.292;23.146;2024-01-07T13:03:16;41.57;;;19.20;;
69569;SDS011;56781;42.292;23.146;2024-01-07T13:05:47;20.13;;;8.95;;
69569;SDS011;56781;42.292;23.146;2024-01-07T13:08:17;4.80;;;2.15;;
69569;SDS011;56781;42.292;23.146;2024-01-07T13:10:49;5.50;;;1.60;;
69569;SDS011;56781;42.292;23.146;2024-01-07T13:13:17;3.08;;;1.05;;
69569;SDS011;56781;42.292;23.146;2024-01-07T13:15:46;5.20;;;1.10;;
69569;SDS011;56781;42.292;23.146;2024-01-07T13:18:18;3.67;;;1.20;;
69569;SDS011;56781;42.292;23.146;2024-01-07T13:20:47;15.98;;;6.82;;
69569;SDS011;56781;42.292;23.146;2024-01-07T13:23:15;26.73;;;11.48;;
69569;SDS011;56781;42.292;23.146;2024-01-07T13:25:45;16.15;;;6.47;;
69569;SDS011;56781;42.292;23.146;2024-01-07T13:28:14;15.57;;;6.70;;
69569;SDS011;56781;42.292;23.146;2024-01-07T13:30:43;63.25;;;26.58;;
69569;SDS011;56781;42.292;23.146;2024-01-07T13:33:12;48.67;;;23.20;;
69569;SDS011;56781;42.292;23.146;2024-01-07T13:35:41;27.13;;;11.65;;
69569;SDS011;56781;42.292;23.146;2024-01-07T13:38:10;10.23;;;3.92;;
69569;SDS011;56781;42.292;23.146;2024-01-07T13:40:39;24.23;;;11.03;;
69569;SDS011;56781;42.292;23.146;2024-01-07T13:43:07;11.57;;;4.10;;
69569;SDS011;56781;42.292;23.146;2024-01-07T13:45:36;14.13;;;5.85;;
69569;SDS011;56781;42.292;23.146;2024-01-07T13:48:05;25.55;;;8.85;;
69569;SDS011;56781;42.292;23.146;2024-01-07T13:50:34;16.50;;;6.43;;
69569;SDS011;56781;42.292;23.146;2024-01-07T13:53:04;14.30;;;4.93;;
69569;SDS011;56781;42.292;23.146;2024-01-07T13:55:33;36.45;;;11.88;;
69569;SDS011;56781;42.292;23.146;2024-01-07T13:58:02;62.30;;;21.75;;
69569;SDS011;56781;42.292;23.146;2024-01-07T14:00:31;24.13;;;6.93;;
69569;SDS011;56781;42.292;23.146;2024-01-07T14:02:59;40.85;;;17.70;;
69569;SDS011;56781;42.292;23.146;2024-01-07T14:05:29;53.00;;;16.17;;
69569;SDS011;56781;42.292;23.146;2024-01-07T14:07:58;14.40;;;4.70;;
69569;SDS011;56781;42.292;23.146;2024-01-07T14:10:28;10.93;;;3.90;;
69569;SDS011;56781;42.292;23.146;2024-01-07T14:12:57;44.70;;;19.33;;
69569;SDS011;56781;42.292;23.146;2024-01-07T14:15:26;64.50;;;24.35;;
69569;SDS011;56781;42.292;23.146;2024-01-07T14:17:55;15.67;;;4.70;;
69569;SDS011;56781;42.292;23.146;2024-01-07T14:20:24;55.15;;;18.15;;
69569;SDS011;56781;42.292;23.146;2024-01-07T14:22:55;68.50;;;28.98;;
69569;SDS011;56781;42.292;23.146;2024-01-07T14:25:24;50.38;;;21.23;;
69569;SDS011;56781;42.292;23.146;2024-01-07T14:27:55;19.63;;;7.97;;
69569;SDS011;56781;42.292;23.146;2024-01-07T14:30:23;95.17;;;31.77;;
69569;SDS011;56781;42.292;23.146;2024-01-07T14:32:52;99.68;;;29.73;;
69569;SDS011;56781;42.292;23.146;2024-01-07T14:35:20;79.82;;;24.38;;
69569;SDS011;56781;42.292;23.146;2024-01-07T14:37:51;56.63;;;18.08;;
69569;SDS011;56781;42.292;23.146;2024-01-07T14:40:20;66.05;;;23.48;;